Time,TemperatureF,DewpointF,PressureIn,WindDirection,WindDirectionDegrees,WindSpeedMPH,WindSpeedGustMPH,Humidity,HourlyPrecipIn,Conditions,Clouds,dailyrainin,SoftwareType,DateUTC
2013-03-02 00:04:00,50.4,47.8,30.30,ENE,68,0.0,0.0,91,0.00,OVC,,0.00,WeatherDisplay:10.37,2013-03-02 08:04:00,
2013-03-02 00:09:00,50.2,47.7,30.30,East,90,0.0,0.0,91,0.00,OVC,,0.00,WeatherDisplay:10.37,2013-03-02 08:09:00,
2013-03-02 00:15:00,50.0,47.5,30.30,ENE,68,0.0,0.0,91,0.00,OVC,,0.00,WeatherDisplay:10.37,2013-03-02 08:15:00,
2013-03-02 00:20:00,50.0,47.5,30.30,NE,45,0.0,0.0,91,0.00,OVC,,0.00,WeatherDisplay:10.37,2013-03-02 08:20:00,
2013-03-02 00:25:00,50.0,47.8,30.30,NNE,22,0.0,0.0,92,0.00,OVC,,0.00,WeatherDisplay:10.37,2013-03-02 08:25:00,
2013-03-02 00:30:00,49.8,47.6,30.30,NE,45,0.0,0.0,92,0.00,OVC,,0.00,WeatherDisplay:10.37,2013-03-02 08:30:00,
2013-03-02 00:35:00,49.8,47.6,30.30,NE,45,0.0,0.0,92,0.00,OVC,,0.00,WeatherDisplay:10.37,2013-03-02 08:35:00,
2013-03-02 00:41:00,49.6,47.7,30.30,ENE,68,0.0,0.0,93,0.00,OVC,,0.00,WeatherDisplay:10.37,2013-03-02 08:41:00,
2013-03-02 00:46:00,49.6,47.7,30.30,ENE,68,0.0,0.0,93,0.00,OVC,,0.00,WeatherDisplay:10.37,2013-03-02 08:46:00,
2013-03-02 00:51:00,49.6,47.7,30.30,North,0,0.0,0.0,93,0.00,OVC,,0.00,WeatherDisplay:10.37,2013-03-02 08:51:00,
2013-03-02 00:56:00,49.8,48.2,30.30,NW,315,0.0,0.0,94,0.00,OVC,,0.00,WeatherDisplay:10.37,2013-03-02 08:56:00,
2013-03-02 01:01:00,49.6,47.7,30.30,East,90,0.0,0.0,93,0.00,OVC,,0.00,WeatherDisplay:10.37,2013-03-02 09:01:00,
2013-03-02 01:06:00,49.6,47.7,30.30,ENE,68,0.0,0.0,93,0.00,OVC,,0.00,WeatherDisplay:10.37,2013-03-02 09:06:00,
2013-03-02 01:12:00,49.6,48.0,30.30,ENE,68,0.0,0.0,94,0.00,OVC,,0.00,WeatherDisplay:10.37,2013-03-02 09:12:00,
2013-03-02 01:17:00,49.8,48.2,30.27,ENE,68,0.0,0.0,94,0.00,OVC,,0.00,WeatherDisplay:10.37,2013-03-02 09:17:00,
2013-03-02 01:22:00,49.8,48.2,30.27,ENE,68,0.0,0.0,94,0.00,OVC,,0.00,WeatherDisplay:10.37,2013-03-02 09:22:00,
2013-03-02 01:27:00,49.8,48.2,30.27,WNW,292,0.0,0.0,94,0.00,OVC,,0.00,WeatherDisplay:10.37,2013-03-02 09:27:00,
2013-03-02 01:33:00,49.6,47.7,30.27,NW,315,0.0,0.0,93,0.00,OVC,,0.00,WeatherDisplay:10.37,2013-03-02 09:33:00,
2013-03-02 01:38:00,49.6,47.7,30.27,NNE,22,0.0,0.0,93,0.00,OVC,,0.00,WeatherDisplay:10.37,2013-03-02 09:38:00,
2013-03-02 01:43:00,49.5,47.5,30.27,ENE,68,0.0,0.0,93,0.00,OVC,,0.00,WeatherDisplay:10.37,2013-03-02 09:43:00,
2013-03-02 01:48:00,49.5,47.5,30.27,East,90,0.0,0.0,93,0.00,OVC,,0.00,WeatherDisplay:10.37,2013-03-02 09:48:00,
2013-03-02 01:53:00,49.3,47.6,30.27,East,90,0.0,0.0,94,0.00,OVC,,0.00,WeatherDisplay:10.37,2013-03-02 09:53:00,
2013-03-02 01:58:00,49.5,48.1,30.27,East,90,0.0,0.0,95,0.00,OVC,,0.00,WeatherDisplay:10.37,2013-03-02 09:58:00,
2013-03-02 02:04:00,49.3,47.6,30.27,NE,45,0.0,0.0,94,0.00,OVC,,0.00,WeatherDisplay:10.37,2013-03-02 10:04:00,
2013-03-02 02:09:00,49.1,47.4,30.27,ENE,68,0.0,0.0,94,0.00,OVC,,0.00,WeatherDisplay:10.37,2013-03-02 10:09:00,
2013-03-02 02:14:00,48.9,47.3,30.27,ENE,68,0.0,0.0,94,0.00,OVC,,0.00,WeatherDisplay:10.37,2013-03-02 10:14:00,
2013-03-02 02:19:00,48.9,47.3,30.27,ENE,68,0.0,0.0,94,0.00,OVC,,0.00,WeatherDisplay:10.37,2013-03-02 10:19:00,
2013-03-02 02:25:00,48.7,47.1,30.27,ENE,68,0.0,0.0,94,0.00,OVC,,0.00,WeatherDisplay:10.37,2013-03-02 10:25:00,
2013-03-02 02:30:00,48.7,46.8,30.27,ENE,68,0.0,0.0,93,0.00,OVC,,0.00,WeatherDisplay:10.37,2013-03-02 10:30:00,
2013-03-02 02:35:00,48.6,46.9,30.27,NNW,338,0.0,0.0,94,0.00,OVC,,0.00,WeatherDisplay:10.37,2013-03-02 10:35:00,
2013-03-02 02:40:00,48.6,46.9,30.27,NNW,338,0.0,0.0,94,0.00,OVC,,0.00,WeatherDisplay:10.37,2013-03-02 10:40:00,
2013-03-02 02:45:00,48.2,46.6,30.24,North,0,0.0,0.0,94,0.00,OVC,,0.00,WeatherDisplay:10.37,2013-03-02 10:45:00,
2013-03-02 02:51:00,48.2,46.8,30.24,WNW,292,0.0,1.2,95,0.00,OVC,,0.00,WeatherDisplay:10.37,2013-03-02 10:51:00,
2013-03-02 02:56:00,47.8,46.5,30.24,NW,315,0.9,1.2,95,0.00,OVC,,0.00,WeatherDisplay:10.37,2013-03-02 10:56:00,
2013-03-02 03:01:00,47.7,46.3,30.21,NNE,22,0.0,0.0,95,0.00,OVC,,0.00,WeatherDisplay:10.37,2013-03-02 11:01:00,
2013-03-02 03:06:00,47.7,46.3,30.21,NNE,22,0.0,0.0,95,0.00,OVC,,0.00,WeatherDisplay:10.37,2013-03-02 11:06:00,
2013-03-02 03:11:00,47.5,46.1,30.21,NNE,22,0.0,0.0,95,0.00,OVC,,0.00,WeatherDisplay:10.37,2013-03-02 11:11:00,
2013-03-02 03:16:00,47.5,46.1,30.21,NNE,22,0.0,0.0,95,0.00,OVC,,0.00,WeatherDisplay:10.37,2013-03-02 11:16:00,
2013-03-02 03:22:00,47.5,46.1,30.21,NNE,22,0.0,0.0,95,0.00,OVC,,0.00,WeatherDisplay:10.37,2013-03-02 11:22:00,
2013-03-02 03:27:00,47.5,46.4,30.21,NNE,22,0.0,0.0,96,0.00,OVC,,0.00,WeatherDisplay:10.37,2013-03-02 11:27:00,
2013-03-02 03:32:00,47.3,46.2,30.24,NNE,22,0.0,0.0,96,0.00,OVC,,0.00,WeatherDisplay:10.37,2013-03-02 11:32:00,
2013-03-02 03:37:00,47.3,46.2,30.24,NNE,22,0.0,0.0,96,0.00,OVC,,0.00,WeatherDisplay:10.37,2013-03-02 11:37:00,
2013-03-02 03:42:00,47.3,46.2,30.24,NNW,338,0.0,0.0,96,0.00,OVC,,0.00,WeatherDisplay:10.37,2013-03-02 11:42:00,
2013-03-02 03:48:00,47.5,46.7,30.24,NNW,338,0.0,0.0,97,0.00,OVC,,0.00,WeatherDisplay:10.37,2013-03-02 11:48:00,
2013-03-02 03:53:00,47.3,46.5,30.24,NW,315,0.0,0.0,97,0.00,OVC,,0.00,WeatherDisplay:10.37,2013-03-02 11:53:00,
2013-03-02 03:58:00,47.3,46.5,30.24,NW,315,0.0,0.0,97,0.00,OVC,,0.00,WeatherDisplay:10.37,2013-03-02 11:58:00,
2013-03-02 04:03:00,47.3,46.5,30.24,NW,315,0.0,0.0,97,0.00,OVC,,0.00,WeatherDisplay:10.37,2013-03-02 12:03:00,
2013-03-02 04:08:00,47.3,46.5,30.24,NE,45,0.0,0.0,97,0.00,OVC,,0.00,WeatherDisplay:10.37,2013-03-02 12:08:00,
2013-03-02 04:13:00,47.3,46.5,30.24,ENE,68,0.0,0.0,97,0.00,OVC,,0.00,WeatherDisplay:10.37,2013-03-02 12:13:00,
2013-03-02 04:19:00,47.3,46.5,30.24,NE,45,0.0,0.0,97,0.00,OVC,,0.00,WeatherDisplay:10.37,2013-03-02 12:19:00,
2013-03-02 04:24:00,47.3,46.5,30.24,North,0,0.0,0.0,97,0.00,OVC,,0.00,WeatherDisplay:10.37,2013-03-02 12:24:00,
2013-03-02 04:29:00,47.3,47.3,30.24,NNW,338,0.0,0.0,100,0.00,OVC,,0.00,WeatherDisplay:10.37,2013-03-02 12:29:00,
2013-03-02 04:34:00,47.3,47.3,30.24,ESE,112,0.0,0.0,100,0.00,OVC,,0.00,WeatherDisplay:10.37,2013-03-02 12:34:00,
2013-03-02 04:39:00,47.1,47.1,30.24,NNE,22,0.0,0.0,100,0.00,OVC,,0.00,WeatherDisplay:10.37,2013-03-02 12:39:00,
2013-03-02 04:45:00,47.3,47.3,30.21,WSW,248,0.0,0.0,100,0.00,OVC,,0.00,WeatherDisplay:10.37,2013-03-02 12:45:00,
2013-03-02 04:50:00,47.3,47.3,30.21,WSW,248,0.0,0.0,100,0.00,OVC,,0.00,WeatherDisplay:10.37,2013-03-02 12:50:00,
2013-03-02 04:55:00,47.1,47.1,30.21,NE,45,0.0,0.0,100,0.00,OVC,,0.00,WeatherDisplay:10.37,2013-03-02 12:55:00,
2013-03-02 05:00:00,47.1,47.1,30.21,North,0,0.0,0.0,100,0.00,OVC,,0.00,WeatherDisplay:10.37,2013-03-02 13:00:00,
2013-03-02 05:05:00,47.1,47.1,30.21,NNE,22,0.0,0.0,100,0.00,OVC,,0.00,WeatherDisplay:10.37,2013-03-02 13:05:00,
2013-03-02 05:11:00,47.1,47.1,30.21,WSW,248,0.0,0.0,100,0.00,OVC,,0.00,WeatherDisplay:10.37,2013-03-02 13:11:00,
2013-03-02 05:16:00,46.9,46.9,30.21,NNE,22,0.0,0.0,100,0.00,OVC,,0.00,WeatherDisplay:10.37,2013-03-02 13:16:00,
2013-03-02 05:21:00,46.9,46.9,30.21,NNW,338,0.0,0.0,100,0.00,OVC,,0.00,WeatherDisplay:10.37,2013-03-02 13:21:00,
2013-03-02 05:26:00,46.9,46.9,30.21,West,270,0.0,0.0,100,0.00,OVC,,0.00,WeatherDisplay:10.37,2013-03-02 13:26:00,
2013-03-02 05:31:00,46.9,46.9,30.21,NW,315,0.0,0.0,100,0.00,OVC,,0.00,WeatherDisplay:10.37,2013-03-02 13:31:00,
2013-03-02 05:37:00,46.9,46.9,30.21,NNE,22,0.0,0.0,100,0.00,OVC,,0.00,WeatherDisplay:10.37,2013-03-02 13:37:00,
2013-03-02 05:42:00,46.8,46.8,30.21,NNE,22,0.0,0.0,100,0.00,OVC,,0.00,WeatherDisplay:10.37,2013-03-02 13:42:00,
2013-03-02 05:47:00,46.8,46.8,30.21,ENE,68,0.0,0.0,100,0.00,OVC,,0.00,WeatherDisplay:10.37,2013-03-02 13:47:00,
2013-03-02 05:52:00,46.8,46.8,30.21,NNE,22,0.0,0.0,100,0.00,OVC,,0.00,WeatherDisplay:10.37,2013-03-02 13:52:00,
2013-03-02 05:57:00,46.8,46.8,30.21,NNE,22,0.0,0.0,100,0.00,OVC,,0.00,WeatherDisplay:10.37,2013-03-02 13:57:00,
2013-03-02 06:03:00,46.8,46.8,30.18,NE,45,0.0,0.0,100,0.00,OVC,,0.00,WeatherDisplay:10.37,2013-03-02 14:03:00,
2013-03-02 06:08:00,46.8,46.8,30.18,ENE,68,0.0,0.0,100,0.00,OVC,,0.00,WeatherDisplay:10.37,2013-03-02 14:08:00,
2013-03-02 06:13:00,46.9,46.9,30.18,WNW,292,0.0,0.0,100,0.00,OVC,,0.00,WeatherDisplay:10.37,2013-03-02 14:13:00,
2013-03-02 06:18:00,46.8,46.8,30.18,ENE,68,0.0,0.0,100,0.00,OVC,,0.00,WeatherDisplay:10.37,2013-03-02 14:18:00,
2013-03-02 06:23:00,46.9,46.9,30.18,NNW,338,0.0,0.0,100,0.00,OVC,,0.00,WeatherDisplay:10.37,2013-03-02 14:23:00,
2013-03-02 06:29:00,46.9,46.9,30.18,SW,225,0.0,0.0,100,0.00,OVC,,0.00,WeatherDisplay:10.37,2013-03-02 14:29:00,
2013-03-02 06:34:00,46.8,46.8,30.18,ENE,68,0.0,0.0,100,0.00,OVC,,0.00,WeatherDisplay:10.37,2013-03-02 14:34:00,
2013-03-02 06:39:00,46.8,46.8,30.18,WNW,292,0.0,0.0,100,0.00,OVC,,0.00,WeatherDisplay:10.37,2013-03-02 14:39:00,
2013-03-02 06:44:00,46.8,46.8,30.18,West,270,0.0,0.0,100,0.00,OVC,,0.00,WeatherDisplay:10.37,2013-03-02 14:44:00,
2013-03-02 06:49:00,46.8,46.8,30.18,SSE,158,0.0,0.0,100,0.00,OVC,,0.00,WeatherDisplay:10.37,2013-03-02 14:49:00,
2013-03-02 06:55:00,46.8,46.8,30.18,ESE,112,0.0,0.0,100,0.00,OVC,,0.00,WeatherDisplay:10.37,2013-03-02 14:55:00,
2013-03-02 07:00:00,46.8,46.8,30.18,WSW,248,0.0,0.0,100,0.00,OVC,,0.00,WeatherDisplay:10.37,2013-03-02 15:00:00,
2013-03-02 07:05:00,46.6,46.6,30.18,SSW,202,0.0,0.0,100,0.00,OVC,,0.00,WeatherDisplay:10.37,2013-03-02 15:05:00,
2013-03-02 07:10:00,46.6,46.6,30.18,ESE,112,0.0,0.0,100,0.00,OVC,,0.00,WeatherDisplay:10.37,2013-03-02 15:10:00,
2013-03-02 07:16:00,46.6,46.6,30.18,East,90,0.0,0.0,100,0.00,OVC,,0.00,WeatherDisplay:10.37,2013-03-02 15:16:00,
2013-03-02 07:21:00,46.6,46.6,30.18,East,90,0.0,0.0,100,0.00,OVC,,0.00,WeatherDisplay:10.37,2013-03-02 15:21:00,
2013-03-02 07:26:00,46.6,46.6,30.18,NE,45,0.0,0.0,100,0.00,OVC,,0.00,WeatherDisplay:10.37,2013-03-02 15:26:00,
2013-03-02 07:31:00,46.8,46.8,30.18,West,270,0.0,0.0,100,0.00,OVC,,0.00,WeatherDisplay:10.37,2013-03-02 15:31:00,
2013-03-02 07:37:00,46.8,46.8,30.18,West,270,2.2,2.9,100,0.00,OVC,,0.00,WeatherDisplay:10.37,2013-03-02 15:37:00,
2013-03-02 07:42:00,46.8,46.8,30.18,ESE,112,0.9,1.2,100,0.00,OVC,,0.00,WeatherDisplay:10.37,2013-03-02 15:42:00,
2013-03-02 07:47:00,46.8,46.8,30.18,ESE,112,0.0,1.2,100,0.00,OVC,,0.00,WeatherDisplay:10.37,2013-03-02 15:47:00,
2013-03-02 07:52:00,46.9,46.9,30.18,West,270,0.0,0.0,100,0.00,OVC,,0.00,WeatherDisplay:10.37,2013-03-02 15:52:00,
2013-03-02 07:57:00,46.9,46.9,30.18,South,180,0.0,0.0,100,0.00,OVC,,0.00,WeatherDisplay:10.37,2013-03-02 15:57:00,
2013-03-02 08:02:00,47.3,47.3,30.18,East,90,0.0,0.0,100,0.00,OVC,,0.00,WeatherDisplay:10.37,2013-03-02 16:02:00,
2013-03-02 08:08:00,47.3,47.3,30.18,NNE,22,0.0,0.0,100,0.00,OVC,,0.00,WeatherDisplay:10.37,2013-03-02 16:08:00,
2013-03-02 08:13:00,47.7,47.7,30.18,SW,225,1.2,2.4,100,0.00,OVC,,0.00,WeatherDisplay:10.37,2013-03-02 16:13:00,
2013-03-02 08:18:00,47.7,47.7,30.18,South,180,0.0,0.0,100,0.00,OVC,,0.00,WeatherDisplay:10.37,2013-03-02 16:18:00,
2013-03-02 08:24:00,47.7,47.7,30.18,WSW,248,0.0,0.0,100,0.00,OVC,,0.00,WeatherDisplay:10.37,2013-03-02 16:24:00,
2013-03-02 08:29:00,47.7,47.7,30.18,SW,225,0.0,0.0,100,0.00,OVC,,0.00,WeatherDisplay:10.37,2013-03-02 16:29:00,
2013-03-02 08:34:00,47.8,47.8,30.18,South,180,0.0,0.0,100,0.00,OVC,,0.00,WeatherDisplay:10.37,2013-03-02 16:34:00,
2013-03-02 08:39:00,47.8,47.8,30.18,South,180,0.0,0.0,100,0.00,OVC,,0.00,WeatherDisplay:10.37,2013-03-02 16:39:00,
2013-03-02 08:45:00,47.8,47.8,30.18,South,180,0.0,0.0,100,0.00,OVC,,0.00,WeatherDisplay:10.37,2013-03-02 16:45:00,
2013-03-02 08:50:00,48.0,48.0,30.18,SE,135,0.0,0.0,100,0.00,OVC,,0.00,WeatherDisplay:10.37,2013-03-02 16:50:00,
2013-03-02 08:55:00,48.0,48.0,30.18,SE,135,0.0,0.0,100,0.00,OVC,,0.00,WeatherDisplay:10.37,2013-03-02 16:55:00,
2013-03-02 09:00:00,48.2,48.2,30.18,SE,135,0.0,0.0,100,0.00,OVC,,0.00,WeatherDisplay:10.37,2013-03-02 17:00:00,
2013-03-02 09:05:00,48.2,48.2,30.18,WSW,248,0.0,0.0,100,0.00,OVC,,0.00,WeatherDisplay:10.37,2013-03-02 17:05:00,
2013-03-02 09:11:00,48.2,48.2,30.18,WSW,248,0.0,0.0,100,0.00,OVC,,0.00,WeatherDisplay:10.37,2013-03-02 17:11:00,
2013-03-02 09:16:00,48.4,48.4,30.18,WSW,248,0.0,0.0,100,0.00,OVC,,0.00,WeatherDisplay:10.37,2013-03-02 17:16:00,
2013-03-02 09:21:00,48.6,48.6,30.18,SE,135,0.0,0.0,100,0.00,OVC,,0.00,WeatherDisplay:10.37,2013-03-02 17:21:00,
2013-03-02 09:26:00,48.7,48.7,30.18,South,180,0.0,0.0,100,0.00,OVC,,0.00,WeatherDisplay:10.37,2013-03-02 17:26:00,
2013-03-02 09:32:00,48.7,48.7,30.18,SSE,158,2.0,2.3,100,0.00,OVC,,0.00,WeatherDisplay:10.37,2013-03-02 17:32:00,
2013-03-02 09:37:00,48.7,48.7,30.18,SSW,202,0.0,0.0,100,0.00,OVC,,0.00,WeatherDisplay:10.37,2013-03-02 17:37:00,
2013-03-02 09:42:00,48.7,48.7,30.18,South,180,3.1,4.6,100,0.00,OVC,,0.00,WeatherDisplay:10.37,2013-03-02 17:42:00,
2013-03-02 09:47:00,48.9,48.9,30.18,SSE,158,2.2,2.4,100,0.00,OVC,,0.00,WeatherDisplay:10.37,2013-03-02 17:47:00,
2013-03-02 09:53:00,49.1,49.1,30.18,West,270,0.9,1.4,100,0.00,OVC,,0.00,WeatherDisplay:10.37,2013-03-02 17:53:00,
2013-03-02 09:58:00,49.1,48.3,30.18,South,180,0.0,0.0,97,0.00,OVC,,0.00,WeatherDisplay:10.37,2013-03-02 17:58:00,
2013-03-02 10:03:00,49.1,48.0,30.18,SSE,158,0.0,0.0,96,0.00,OVC,,0.00,WeatherDisplay:10.37,2013-03-02 18:03:00,
2013-03-02 10:08:00,49.3,47.9,30.18,WSW,248,1.6,3.5,95,0.00,OVC,,0.00,WeatherDisplay:10.37,2013-03-02 18:08:00,
2013-03-02 10:14:00,49.3,47.6,30.21,West,270,2.9,3.5,94,0.00,OVC,,0.00,WeatherDisplay:10.37,2013-03-02 18:14:00,
2013-03-02 10:19:00,49.5,47.8,30.21,SSE,158,4.0,4.6,94,0.00,OVC,,0.00,WeatherDisplay:10.37,2013-03-02 18:19:00,
2013-03-02 10:24:00,49.1,47.2,30.21,SE,135,0.0,0.0,93,0.00,OVC,,0.00,WeatherDisplay:10.37,2013-03-02 18:24:00,
2013-03-02 10:29:00,49.3,47.3,30.21,SSE,158,0.0,0.0,93,0.00,OVC,,0.00,WeatherDisplay:10.37,2013-03-02 18:29:00,
2013-03-02 10:34:00,49.5,47.5,30.21,SSE,158,2.4,2.4,93,0.00,OVC,,0.00,WeatherDisplay:10.37,2013-03-02 18:34:00,
2013-03-02 10:40:00,49.5,46.9,30.21,South,180,3.1,4.6,91,0.00,OVC,,0.00,WeatherDisplay:10.37,2013-03-02 18:40:00,
2013-03-02 10:45:00,49.5,46.6,30.18,South,180,3.6,5.8,90,0.00,OVC,,0.00,WeatherDisplay:10.37,2013-03-02 18:45:00,
2013-03-02 10:50:00,49.6,46.5,30.18,South,180,3.8,5.8,89,0.00,OVC,,0.00,WeatherDisplay:10.37,2013-03-02 18:50:00,
2013-03-02 10:55:00,49.6,46.2,30.18,ESE,112,6.0,6.0,88,0.00,OVC,,0.00,WeatherDisplay:10.37,2013-03-02 18:55:00,
2013-03-02 11:01:00,49.6,45.9,30.18,South,180,3.3,5.8,87,0.00,OVC,,0.00,WeatherDisplay:10.37,2013-03-02 19:01:00,
2013-03-02 11:06:00,49.8,46.4,30.18,South,180,3.3,5.8,88,0.00,OVC,,0.00,WeatherDisplay:10.37,2013-03-02 19:06:00,
2013-03-02 11:11:00,50.0,46.3,30.18,SSE,158,3.6,5.8,87,0.00,OVC,,0.00,WeatherDisplay:10.37,2013-03-02 19:11:00,
2013-03-02 11:17:00,50.0,46.3,30.18,South,180,3.8,5.8,87,0.00,OVC,,0.00,WeatherDisplay:10.37,2013-03-02 19:17:00,
2013-03-02 11:22:00,50.2,46.2,30.18,South,180,2.6,4.9,86,0.00,OVC,,0.00,WeatherDisplay:10.37,2013-03-02 19:22:00,
2013-03-02 11:27:00,50.2,45.8,30.18,SSE,158,3.6,5.6,85,0.00,OVC,,0.00,WeatherDisplay:10.37,2013-03-02 19:27:00,
2013-03-02 11:33:00,50.2,45.8,30.18,South,180,5.6,8.1,85,0.00,OVC,,0.00,WeatherDisplay:10.37,2013-03-02 19:33:00,
2013-03-02 11:37:00,50.2,45.8,30.18,South,180,4.5,4.6,85,0.00,OVC,,0.00,WeatherDisplay:10.37,2013-03-02 19:37:00,
2013-03-02 11:43:00,50.2,45.8,30.18,South,180,1.4,3.5,85,0.00,OVC,,0.00,WeatherDisplay:10.37,2013-03-02 19:43:00,
2013-03-02 11:48:00,50.4,46.0,30.18,ESE,112,5.9,8.1,85,0.00,OVC,,0.00,WeatherDisplay:10.37,2013-03-02 19:48:00,
2013-03-02 11:53:00,50.5,46.5,30.18,South,180,3.1,5.8,86,0.00,OVC,,0.00,WeatherDisplay:10.37,2013-03-02 19:53:00,
2013-03-02 11:58:00,50.9,46.6,30.18,South,180,6.0,6.9,85,0.00,OVC,,0.00,WeatherDisplay:10.37,2013-03-02 19:58:00,
2013-03-02 12:04:00,50.9,46.6,30.18,SSE,158,4.3,5.8,85,0.00,OVC,,0.00,WeatherDisplay:10.37,2013-03-02 20:04:00,
2013-03-02 12:09:00,51.1,46.4,30.18,SSE,158,5.9,8.1,84,0.00,OVC,,0.00,WeatherDisplay:10.37,2013-03-02 20:09:00,
2013-03-02 12:14:00,51.3,46.3,30.18,SSE,158,4.3,6.0,83,0.00,OVC,,0.00,WeatherDisplay:10.37,2013-03-02 20:14:00,
2013-03-02 12:19:00,51.3,46.0,30.18,ESE,112,4.7,8.1,82,0.00,OVC,,0.00,WeatherDisplay:10.37,2013-03-02 20:19:00,
2013-03-02 12:25:00,51.6,46.3,30.18,ESE,112,5.9,7.8,82,0.00,OVC,,0.00,WeatherDisplay:10.37,2013-03-02 20:25:00,
2013-03-02 12:30:00,52.0,46.3,30.15,SSE,158,5.6,5.8,81,0.00,OVC,,0.00,WeatherDisplay:10.37,2013-03-02 20:30:00,
2013-03-02 12:35:00,52.0,45.7,30.15,SSW,202,5.4,6.9,79,0.00,OVC,,0.00,WeatherDisplay:10.37,2013-03-02 20:35:00,
2013-03-02 12:40:00,52.0,45.0,30.15,South,180,2.4,3.5,77,0.00,OVC,,0.00,WeatherDisplay:10.37,2013-03-02 20:40:00,
2013-03-02 12:45:00,52.0,45.3,30.15,SW,225,3.6,4.6,78,0.00,OVC,,0.00,WeatherDisplay:10.37,2013-03-02 20:45:00,
2013-03-02 12:51:00,51.8,45.2,30.15,SSE,158,4.0,6.9,78,0.00,OVC,,0.00,WeatherDisplay:10.37,2013-03-02 20:51:00,
2013-03-02 12:56:00,51.8,45.5,30.15,SSE,158,4.5,6.4,79,0.00,OVC,,0.00,WeatherDisplay:10.37,2013-03-02 20:56:00,
2013-03-02 13:01:00,51.8,45.5,30.15,SSE,158,6.0,8.1,79,0.00,OVC,,0.00,WeatherDisplay:10.37,2013-03-02 21:01:00,
2013-03-02 13:06:00,51.8,45.2,30.15,SSW,202,4.0,7.6,78,0.00,OVC,,0.00,WeatherDisplay:10.37,2013-03-02 21:06:00,
2013-03-02 13:11:00,52.0,45.3,30.15,SSE,158,2.9,4.6,78,0.00,OVC,,0.00,WeatherDisplay:10.37,2013-03-02 21:11:00,
2013-03-02 13:17:00,52.0,45.0,30.15,SSE,158,4.7,6.9,77,0.00,OVC,,0.00,WeatherDisplay:10.37,2013-03-02 21:17:00,
2013-03-02 13:22:00,52.2,44.8,30.15,South,180,4.5,5.8,76,0.00,OVC,,0.00,WeatherDisplay:10.37,2013-03-02 21:22:00,
2013-03-02 13:27:00,52.2,45.2,30.15,SSW,202,5.4,6.9,77,0.00,OVC,,0.00,WeatherDisplay:10.37,2013-03-02 21:27:00,
2013-03-02 13:32:00,52.3,45.7,30.15,SSW,202,4.0,5.8,78,0.00,OVC,,0.00,WeatherDisplay:10.37,2013-03-02 21:32:00,
2013-03-02 13:37:00,52.3,45.7,30.15,South,180,4.7,8.1,78,0.00,OVC,,0.00,WeatherDisplay:10.37,2013-03-02 21:37:00,
2013-03-02 13:42:00,52.3,46.0,30.15,SSE,158,3.8,4.9,79,0.00,OVC,,0.00,WeatherDisplay:10.37,2013-03-02 21:42:00,
2013-03-02 13:48:00,52.5,45.5,30.15,SSE,158,5.9,9.2,77,0.00,OVC,,0.00,WeatherDisplay:10.37,2013-03-02 21:48:00,
2013-03-02 13:53:00,52.9,45.5,30.15,SE,135,5.4,10.4,76,0.00,OVC,,0.00,WeatherDisplay:10.37,2013-03-02 21:53:00,
2013-03-02 13:58:00,53.1,44.6,30.12,South,180,6.7,9.8,73,0.00,OVC,,0.00,WeatherDisplay:10.37,2013-03-02 21:58:00,
2013-03-02 14:03:00,53.4,45.3,30.12,ESE,112,6.2,10.4,74,0.00,OVC,,0.00,WeatherDisplay:10.37,2013-03-02 22:03:00,
2013-03-02 14:09:00,53.6,44.8,30.12,WSW,248,6.4,9.2,72,0.00,OVC,,0.00,WeatherDisplay:10.37,2013-03-02 22:09:00,
2013-03-02 14:14:00,53.8,43.8,30.12,SSE,158,5.9,6.9,69,0.00,OVC,,0.00,WeatherDisplay:10.37,2013-03-02 22:14:00,
2013-03-02 14:19:00,53.8,43.8,30.12,SSE,158,6.7,9.2,69,0.00,OVC,,0.00,WeatherDisplay:10.37,2013-03-02 22:19:00,
2013-03-02 14:24:00,53.8,43.8,30.12,SSW,202,4.7,6.9,69,0.00,OVC,,0.00,WeatherDisplay:10.37,2013-03-02 22:24:00,
2013-03-02 14:29:00,53.6,44.0,30.12,SSE,158,4.0,6.9,70,0.00,OVC,,0.00,WeatherDisplay:10.37,2013-03-02 22:29:00,
2013-03-02 14:34:00,53.6,44.4,30.12,South,180,3.3,4.6,71,0.00,OVC,,0.00,WeatherDisplay:10.37,2013-03-02 22:34:00,
2013-03-02 14:40:00,53.4,43.5,30.12,SSE,158,5.6,8.1,69,0.00,OVC,,0.00,WeatherDisplay:10.37,2013-03-02 22:40:00,
2013-03-02 14:45:00,53.4,44.2,30.12,South,180,4.9,8.1,71,0.00,OVC,,0.00,WeatherDisplay:10.37,2013-03-02 22:45:00,
2013-03-02 14:50:00,53.4,43.9,30.12,SSE,158,3.3,5.8,70,0.00,OVC,,0.00,WeatherDisplay:10.37,2013-03-02 22:50:00,
2013-03-02 14:56:00,53.4,43.1,30.12,SE,135,6.2,8.1,68,0.00,OVC,,0.00,WeatherDisplay:10.37,2013-03-02 22:56:00,
2013-03-02 15:01:00,53.2,42.2,30.12,South,180,5.9,10.4,66,0.00,OVC,,0.00,WeatherDisplay:10.37,2013-03-02 23:01:00,
2013-03-02 15:06:00,53.2,42.9,30.12,South,180,6.7,6.9,68,0.00,OVC,,0.00,WeatherDisplay:10.37,2013-03-02 23:06:00,
2013-03-02 15:11:00,53.1,43.2,30.12,ESE,112,5.9,9.2,69,0.00,OVC,,0.00,WeatherDisplay:10.37,2013-03-02 23:11:00,
2013-03-02 15:17:00,52.7,43.9,30.12,South,180,8.1,10.4,72,0.00,OVC,,0.00,WeatherDisplay:10.37,2013-03-02 23:17:00,
2013-03-02 15:22:00,52.2,44.5,30.12,South,180,4.7,8.5,75,0.01,RA,,0.01,WeatherDisplay:10.37,2013-03-02 23:22:00,
2013-03-02 15:27:00,51.8,44.8,30.12,SSE,158,0.9,6.9,77,0.01,RA,,0.01,WeatherDisplay:10.37,2013-03-02 23:27:00,
2013-03-02 15:32:00,51.6,45.7,30.12,South,180,4.3,5.6,80,0.01,OVC,,0.01,WeatherDisplay:10.37,2013-03-02 23:32:00,
2013-03-02 15:37:00,51.6,45.7,30.12,South,180,2.4,5.4,80,0.01,OVC,,0.01,WeatherDisplay:10.37,2013-03-02 23:37:00,
2013-03-02 15:43:00,51.6,46.0,30.12,SE,135,0.0,2.3,81,0.01,OVC,,0.01,WeatherDisplay:10.37,2013-03-02 23:43:00,
2013-03-02 15:48:00,51.6,46.0,30.12,WSW,248,2.0,2.3,81,0.01,OVC,,0.01,WeatherDisplay:10.37,2013-03-02 23:48:00,
2013-03-02 15:53:00,51.4,46.4,30.12,SSE,158,1.2,2.6,83,0.01,OVC,,0.01,WeatherDisplay:10.37,2013-03-02 23:53:00,
2013-03-02 15:58:00,51.1,47.0,30.12,SSE,158,1.4,3.5,86,0.03,RA,,0.03,WeatherDisplay:10.37,2013-03-02 23:58:00,
2013-03-02 16:03:00,50.7,47.3,30.12,SSW,202,1.6,3.5,88,0.05,RA,,0.05,WeatherDisplay:10.37,2013-03-03 00:03:00,
2013-03-02 16:08:00,50.5,47.7,30.12,SSE,158,3.3,4.6,90,0.05,RA,,0.05,WeatherDisplay:10.37,2013-03-03 00:08:00,
2013-03-02 16:14:00,50.4,47.8,30.12,SE,135,0.0,0.0,91,0.05,OVC,,0.05,WeatherDisplay:10.37,2013-03-03 00:14:00,
2013-03-02 16:19:00,50.4,48.1,30.12,SSE,158,0.0,4.7,92,0.06,RA,,0.06,WeatherDisplay:10.37,2013-03-03 00:19:00,
2013-03-02 16:24:00,50.4,48.4,30.12,West,270,4.3,6.9,93,0.05,RA,,0.06,WeatherDisplay:10.37,2013-03-03 00:24:00,
2013-03-02 16:29:00,49.5,47.5,30.12,NNE,22,5.9,6.9,93,0.05,OVC,,0.06,WeatherDisplay:10.37,2013-03-03 00:29:00,
2013-03-02 16:34:00,48.9,46.1,30.12,NNW,338,3.1,5.8,90,0.05,OVC,,0.06,WeatherDisplay:10.37,2013-03-03 00:34:00,
2013-03-02 16:39:00,48.2,44.2,30.12,West,270,4.3,6.9,86,0.05,OVC,,0.06,WeatherDisplay:10.37,2013-03-03 00:39:00,
2013-03-02 16:45:00,48.2,44.2,30.15,WNW,292,4.5,5.8,86,0.05,OVC,,0.06,WeatherDisplay:10.37,2013-03-03 00:45:00,
2013-03-02 16:50:00,48.2,44.2,30.15,WNW,292,5.6,8.1,86,0.05,OVC,,0.06,WeatherDisplay:10.37,2013-03-03 00:50:00,
2013-03-02 16:55:00,47.8,43.2,30.15,SSW,202,4.0,5.8,84,0.05,OVC,,0.06,WeatherDisplay:10.37,2013-03-03 00:55:00,
2013-03-02 17:00:00,47.3,42.7,30.15,WNW,292,5.4,5.8,84,0.02,OVC,,0.06,WeatherDisplay:10.37,2013-03-03 01:00:00,
2013-03-02 17:05:00,46.9,42.0,30.15,NNW,338,4.9,9.2,83,0.01,OVC,,0.06,WeatherDisplay:10.37,2013-03-03 01:05:00,
2013-03-02 17:10:00,46.6,40.4,30.15,NNE,22,3.8,5.8,79,0.01,OVC,,0.06,WeatherDisplay:10.37,2013-03-03 01:10:00,
2013-03-02 17:16:00,46.0,39.9,30.15,NNW,338,3.3,6.2,79,0.00,OVC,,0.06,WeatherDisplay:10.37,2013-03-03 01:16:00,
2013-03-02 17:21:00,45.9,39.7,30.15,WNW,292,4.5,5.8,79,0.00,OVC,,0.06,WeatherDisplay:10.37,2013-03-03 01:21:00,
2013-03-02 17:26:00,45.9,39.7,30.15,NNW,338,2.9,6.4,79,0.00,OVC,,0.06,WeatherDisplay:10.37,2013-03-03 01:26:00,
2013-03-02 17:31:00,45.5,39.4,30.15,NNW,338,3.6,4.3,79,0.00,OVC,,0.06,WeatherDisplay:10.37,2013-03-03 01:31:00,
2013-03-02 17:36:00,45.3,38.5,30.15,NNW,338,4.3,8.1,77,0.00,OVC,,0.06,WeatherDisplay:10.37,2013-03-03 01:36:00,
2013-03-02 17:41:00,45.3,38.5,30.15,NNW,338,3.6,3.6,77,0.00,OVC,,0.06,WeatherDisplay:10.37,2013-03-03 01:41:00,
2013-03-02 17:47:00,45.1,38.7,30.18,WNW,292,2.6,3.5,78,0.00,OVC,,0.06,WeatherDisplay:10.37,2013-03-03 01:47:00,
2013-03-02 17:52:00,45.1,39.0,30.18,NNW,338,3.3,5.8,79,0.00,OVC,,0.06,WeatherDisplay:10.37,2013-03-03 01:52:00,
2013-03-02 17:57:00,45.0,38.8,30.18,NE,45,2.9,3.5,79,0.00,OVC,,0.06,WeatherDisplay:10.37,2013-03-03 01:57:00,
2013-03-02 18:02:00,44.8,39.0,30.18,NNE,22,3.1,3.6,80,0.00,OVC,,0.06,WeatherDisplay:10.37,2013-03-03 02:02:00,
2013-03-02 18:07:00,44.8,39.0,30.18,WNW,292,0.0,2.6,80,0.00,OVC,,0.06,WeatherDisplay:10.37,2013-03-03 02:07:00,
2013-03-02 18:13:00,44.6,39.1,30.21,NNW,338,0.9,2.3,81,0.00,OVC,,0.06,WeatherDisplay:10.37,2013-03-03 02:13:00,
2013-03-02 18:18:00,44.6,39.1,30.21,WNW,292,3.8,5.8,81,0.00,OVC,,0.06,WeatherDisplay:10.37,2013-03-03 02:18:00,
2013-03-02 18:23:00,44.4,39.0,30.21,NNW,338,2.4,2.4,81,0.00,OVC,,0.06,WeatherDisplay:10.37,2013-03-03 02:23:00,
2013-03-02 18:28:00,44.2,38.1,30.18,NNW,338,4.0,5.6,79,0.00,OVC,,0.06,WeatherDisplay:10.37,2013-03-03 02:28:00,
2013-03-02 18:34:00,44.2,38.1,30.18,NNW,338,2.9,3.6,79,0.00,OVC,,0.06,WeatherDisplay:10.37,2013-03-03 02:34:00,
2013-03-02 18:39:00,44.2,38.1,30.18,NW,315,2.9,4.6,79,0.00,OVC,,0.06,WeatherDisplay:10.37,2013-03-03 02:39:00,
2013-03-02 18:44:00,44.1,38.3,30.18,WNW,292,0.0,4.0,80,0.00,OVC,,0.06,WeatherDisplay:10.37,2013-03-03 02:44:00,
2013-03-02 18:49:00,44.1,38.3,30.18,NW,315,3.6,4.6,80,0.00,OVC,,0.06,WeatherDisplay:10.37,2013-03-03 02:49:00,
2013-03-02 18:54:00,44.1,38.3,30.18,NNE,22,3.8,4.6,80,0.00,OVC,,0.06,WeatherDisplay:10.37,2013-03-03 02:54:00,
2013-03-02 18:59:00,43.9,38.4,30.18,NNW,338,2.2,2.4,81,0.00,OVC,,0.06,WeatherDisplay:10.37,2013-03-03 02:59:00,
2013-03-02 19:05:00,43.7,38.3,30.18,NNW,338,3.8,3.8,81,0.00,OVC,,0.06,WeatherDisplay:10.37,2013-03-03 03:05:00,
2013-03-02 19:10:00,43.7,37.9,30.18,NW,315,2.9,4.6,80,0.00,OVC,,0.06,WeatherDisplay:10.37,2013-03-03 03:10:00,
2013-03-02 19:15:00,43.7,38.3,30.18,NW,315,2.6,3.5,81,0.00,OVC,,0.06,WeatherDisplay:10.37,2013-03-03 03:15:00,
2013-03-02 19:21:00,43.5,38.4,30.18,NNW,338,3.8,6.9,82,0.00,OVC,,0.06,WeatherDisplay:10.37,2013-03-03 03:21:00,
2013-03-02 19:26:00,43.5,38.4,30.18,North,0,2.4,3.5,82,0.00,OVC,,0.06,WeatherDisplay:10.37,2013-03-03 03:26:00,
2013-03-02 19:31:00,43.3,38.2,30.15,NW,315,2.2,5.8,82,0.00,OVC,,0.06,WeatherDisplay:10.37,2013-03-03 03:31:00,
2013-03-02 19:36:00,43.2,38.0,30.15,NNW,338,1.4,4.6,82,0.00,OVC,,0.06,WeatherDisplay:10.37,2013-03-03 03:36:00,
2013-03-02 19:41:00,43.0,37.9,30.15,NNW,338,2.4,4.6,82,0.00,OVC,,0.06,WeatherDisplay:10.37,2013-03-03 03:41:00,
2013-03-02 19:46:00,42.8,37.7,30.21,NNE,22,0.0,3.5,82,0.00,OVC,,0.06,WeatherDisplay:10.37,2013-03-03 03:46:00,
2013-03-02 19:52:00,42.6,37.8,30.21,NNW,338,2.6,4.6,83,0.00,OVC,,0.06,WeatherDisplay:10.37,2013-03-03 03:52:00,
2013-03-02 19:57:00,42.6,37.8,30.21,NNW,338,2.4,4.9,83,0.00,OVC,,0.06,WeatherDisplay:10.37,2013-03-03 03:57:00,
2013-03-02 20:02:00,42.4,37.9,30.18,NNW,338,4.3,4.6,84,0.00,OVC,,0.06,WeatherDisplay:10.37,2013-03-03 04:02:00,
2013-03-02 20:07:00,42.6,38.4,30.18,NNW,338,4.0,5.8,85,0.00,OVC,,0.06,WeatherDisplay:10.37,2013-03-03 04:07:00,
2013-03-02 20:13:00,42.6,38.4,30.18,West,270,3.1,7.4,85,0.00,OVC,,0.06,WeatherDisplay:10.37,2013-03-03 04:13:00,
2013-03-02 20:18:00,42.6,38.4,30.18,WNW,292,3.6,4.6,85,0.00,OVC,,0.06,WeatherDisplay:10.37,2013-03-03 04:18:00,
2013-03-02 20:23:00,42.4,38.2,30.18,NNE,22,3.1,4.6,85,0.00,OVC,,0.06,WeatherDisplay:10.37,2013-03-03 04:23:00,
2013-03-02 20:28:00,42.3,38.1,30.18,NNW,338,2.4,4.6,85,0.00,OVC,,0.06,WeatherDisplay:10.37,2013-03-03 04:28:00,
2013-03-02 20:33:00,42.1,37.9,30.18,North,0,4.7,7.6,85,0.00,OVC,,0.06,WeatherDisplay:10.37,2013-03-03 04:33:00,
2013-03-02 20:38:00,42.1,37.9,30.18,NW,315,2.6,8.1,85,0.00,OVC,,0.06,WeatherDisplay:10.37,2013-03-03 04:38:00,
2013-03-02 20:44:00,42.1,37.9,30.18,North,0,3.3,4.6,85,0.00,OVC,,0.06,WeatherDisplay:10.37,2013-03-03 04:44:00,
2013-03-02 20:49:00,42.1,37.9,30.18,WNW,292,2.6,4.6,85,0.00,OVC,,0.06,WeatherDisplay:10.37,2013-03-03 04:49:00,
2013-03-02 20:54:00,42.1,37.9,30.18,NNW,338,2.2,3.5,85,0.00,OVC,,0.06,WeatherDisplay:10.37,2013-03-03 04:54:00,
2013-03-02 20:59:00,42.3,38.4,30.18,NNW,338,2.9,5.8,86,0.00,OVC,,0.06,WeatherDisplay:10.37,2013-03-03 04:59:00,
2013-03-02 21:00:00,42.3,38.4,30.18,North,0,4.0,5.8,86,0.00,OVC,,0.06,WeatherDisplay:10.37,2013-03-03 05:00:00,
2013-03-02 21:03:00,42.3,38.4,30.18,NW,315,2.0,6.9,86,0.00,OVC,,0.06,WeatherDisplay:10.37,2013-03-03 05:03:00,
2013-03-02 21:04:00,42.3,38.4,30.18,WNW,292,2.0,3.5,86,0.00,OVC,,0.06,WeatherDisplay:10.37,2013-03-03 05:04:00,
2013-03-02 21:05:00,42.3,38.4,30.18,NNW,338,3.3,6.9,86,0.00,OVC,,0.06,WeatherDisplay:10.37,2013-03-03 05:05:00,
2013-03-02 21:10:00,42.1,38.2,30.18,WNW,292,2.6,3.5,86,0.00,OVC,,0.06,WeatherDisplay:10.37,2013-03-03 05:10:00,
2013-03-02 21:15:00,41.9,38.0,30.18,North,0,2.4,4.0,86,0.00,OVC,,0.06,WeatherDisplay:10.37,2013-03-03 05:15:00,
2013-03-02 21:20:00,41.7,38.1,30.18,NNW,338,2.0,4.6,87,0.00,OVC,,0.06,WeatherDisplay:10.37,2013-03-03 05:20:00,
2013-03-02 21:26:00,41.5,38.0,30.18,West,270,1.2,2.6,87,0.00,OVC,,0.06,WeatherDisplay:10.37,2013-03-03 05:26:00,
2013-03-02 21:31:00,41.5,38.0,30.18,NNE,22,2.6,5.6,87,0.00,OVC,,0.06,WeatherDisplay:10.37,2013-03-03 05:31:00,
2013-03-02 21:36:00,41.4,37.8,30.18,NNW,338,3.1,4.6,87,0.00,OVC,,0.06,WeatherDisplay:10.37,2013-03-03 05:36:00,
2013-03-02 21:41:00,41.2,37.9,30.18,South,180,1.6,2.3,88,0.00,OVC,,0.06,WeatherDisplay:10.37,2013-03-03 05:41:00,
2013-03-02 21:46:00,41.0,37.7,30.18,SSE,158,0.0,0.0,88,0.00,OVC,,0.06,WeatherDisplay:10.37,2013-03-03 05:46:00,
2013-03-02 21:52:00,40.8,37.5,30.18,ENE,68,0.0,0.0,88,0.00,OVC,,0.06,WeatherDisplay:10.37,2013-03-03 05:52:00,
2013-03-02 21:57:00,40.6,37.7,30.18,West,270,1.6,2.3,89,0.00,OVC,,0.06,WeatherDisplay:10.37,2013-03-03 05:57:00,
2013-03-02 22:02:00,40.5,37.5,30.21,NNW,338,0.0,0.0,89,0.00,OVC,,0.06,WeatherDisplay:10.37,2013-03-03 06:02:00,
2013-03-02 22:07:00,40.5,37.5,30.21,NNW,338,0.0,0.0,89,0.00,OVC,,0.06,WeatherDisplay:10.37,2013-03-03 06:07:00,
2013-03-02 22:12:00,40.5,37.8,30.21,North,0,2.6,2.6,90,0.00,OVC,,0.06,WeatherDisplay:10.37,2013-03-03 06:12:00,
2013-03-02 22:18:00,40.3,37.9,30.21,NNE,22,1.4,2.3,91,0.00,OVC,,0.06,WeatherDisplay:10.37,2013-03-03 06:18:00,
2013-03-02 22:23:00,40.3,37.9,30.21,NNW,338,0.0,3.3,91,0.00,OVC,,0.06,WeatherDisplay:10.37,2013-03-03 06:23:00,
2013-03-02 22:28:00,40.1,37.7,30.21,WNW,292,0.0,1.4,91,0.00,OVC,,0.06,WeatherDisplay:10.37,2013-03-03 06:28:00,
2013-03-02 22:33:00,40.3,37.9,30.21,NNW,338,1.6,3.5,91,0.00,OVC,,0.06,WeatherDisplay:10.37,2013-03-03 06:33:00,
2013-03-02 22:38:00,40.1,38.0,30.21,NNW,338,0.0,1.2,92,0.00,OVC,,0.06,WeatherDisplay:10.37,2013-03-03 06:38:00,
2013-03-02 22:44:00,40.3,38.4,30.21,North,0,2.2,3.6,93,0.00,OVC,,0.06,WeatherDisplay:10.37,2013-03-03 06:44:00,
2013-03-02 22:49:00,40.3,38.7,30.21,WSW,248,0.0,4.0,94,0.00,OVC,,0.06,WeatherDisplay:10.37,2013-03-03 06:49:00,
2013-03-02 22:54:00,40.3,39.0,30.21,WNW,292,0.0,3.5,95,0.00,OVC,,0.06,WeatherDisplay:10.37,2013-03-03 06:54:00,
2013-03-02 22:59:00,40.3,39.0,30.21,NNW,338,0.0,0.0,95,0.00,OVC,,0.06,WeatherDisplay:10.37,2013-03-03 06:59:00,
2013-03-02 23:04:00,40.3,38.7,30.21,NNE,22,0.0,3.5,94,0.00,OVC,,0.06,WeatherDisplay:10.37,2013-03-03 07:04:00,
2013-03-02 23:10:00,40.3,38.7,30.21,North,0,1.4,3.5,94,0.00,OVC,,0.06,WeatherDisplay:10.37,2013-03-03 07:10:00,
2013-03-02 23:15:00,40.1,38.2,30.21,NNW,338,0.0,3.6,93,0.00,OVC,,0.06,WeatherDisplay:10.37,2013-03-03 07:15:00,
2013-03-02 23:20:00,40.1,38.2,30.21,WNW,292,2.0,3.5,93,0.00,OVC,,0.06,WeatherDisplay:10.37,2013-03-03 07:20:00,
2013-03-02 23:25:00,40.1,38.5,30.21,NNE,22,3.8,6.9,94,0.00,OVC,,0.06,WeatherDisplay:10.37,2013-03-03 07:25:00,
2013-03-02 23:31:00,40.1,38.5,30.24,NNW,338,0.0,1.2,94,0.00,OVC,,0.06,WeatherDisplay:10.37,2013-03-03 07:31:00,
2013-03-02 23:36:00,39.9,38.3,30.24,WSW,248,0.0,0.0,94,0.00,OVC,,0.06,WeatherDisplay:10.37,2013-03-03 07:36:00,
2013-03-02 23:41:00,39.7,37.9,30.24,NNE,22,0.9,3.6,93,0.00,OVC,,0.06,WeatherDisplay:10.37,2013-03-03 07:41:00,
2013-03-02 23:46:00,39.7,37.9,30.21,NNE,22,0.0,2.3,93,0.00,OVC,,0.06,WeatherDisplay:10.37,2013-03-03 07:46:00,
2013-03-02 23:51:00,39.6,37.7,30.21,NE,45,1.4,1.4,93,0.00,OVC,,0.06,WeatherDisplay:10.37,2013-03-03 07:51:00,
2013-03-02 23:57:00,39.4,37.5,30.21,North,0,2.4,3.5,93,0.00,OVC,,0.06,WeatherDisplay:10.37,2013-03-03 07:57:00,